Time;durP1;ratioP1;P1;durP2;ratioP2;P2;SDS_P1;SDS_P2;PMS_P1;PMS_P2;Temp;Humidity;BMP_temperature;BMP_pressure;BME280_temperature;BME280_humidity;BME280_pressure;Samples;Min_cycle;Max_cycle;Signal;HPM_P1;HPM_P2
2021/06/30 00:01:05;;;;;;;5.68;2.88;;;15.90;82.10;;;;;;6094114;23;20028;-85
2021/06/30 00:03:37;;;;;;;6.25;2.85;;;15.80;82.20;;;;;;6183957;23;20461;-85
2021/06/30 00:06:04;;;;;;;4.32;2.45;;;15.80;82.20;;;;;;6159066;23;20104;-84
2021/06/30 00:08:32;;;;;;;5.00;2.75;;;15.70;82.20;;;;;;6183651;23;20083;-85
2021/06/30 00:11:02;;;;;;;8.13;2.97;;;15.80;82.30;;;;;;6183214;23;20025;-84
2021/06/30 00:14:19;;;;;;;5.22;2.65;;;15.70;82.10;;;;;;6159163;23;20017;-84
2021/06/30 00:17:19;;;;;;;7.05;2.70;;;15.70;82.00;;;;;;6208265;22;20529;-84
2021/06/30 00:19:46;;;;;;;4.85;2.40;;;15.60;82.10;;;;;;6274563;22;20524;-84
2021/06/30 00:22:19;;;;;;;4.68;2.30;;;15.60;82.20;;;;;;6303599;22;20090;-84
2021/06/30 00:24:51;;;;;;;7.75;2.30;;;15.60;82.20;;;;;;6313012;22;20039;-84
2021/06/30 00:27:18;;;;;;;4.30;2.20;;;15.60;82.30;;;;;;6312324;22;20072;-85
2021/06/30 00:29:45;;;;;;;5.32;2.53;;;15.60;82.30;;;;;;6311745;22;20080;-85
2021/06/30 00:32:17;;;;;;;5.03;2.40;;;15.60;82.30;;;;;;6302008;22;20053;-85
2021/06/30 00:34:44;;;;;;;7.88;2.20;;;15.60;82.40;;;;;;6311834;22;20030;-84
2021/06/30 00:37:16;;;;;;;6.50;2.42;;;15.60;82.40;;;;;;6312861;22;20014;-85
2021/06/30 00:39:46;;;;;;;11.75;2.80;;;15.60;82.40;;;;;;6209009;22;20405;-85
2021/06/30 00:42:13;;;;;;;5.13;2.60;;;15.60;82.40;;;;;;6299482;22;20019;-85
2021/06/30 00:44:45;;;;;;;5.03;2.53;;;15.50;82.40;;;;;;6312986;22;20019;-85
2021/06/30 00:47:19;;;;;;;5.32;3.05;;;15.60;82.40;;;;;;6339335;22;20097;-84
2021/06/30 00:49:51;;;;;;;7.90;3.40;;;15.50;82.40;;;;;;6312869;22;20053;-84
2021/06/30 00:52:26;;;;;;;8.23;2.90;;;15.60;82.40;;;;;;6204075;22;20099;-85
2021/06/30 01:49:59;;;;;;;8.40;5.93;;;15.40;82.50;;;;;;6065291;23;20027;-83
2021/06/30 01:53:04;;;;;;;8.88;6.32;;;15.40;82.60;;;;;;5998674;23;20019;-84
2021/06/30 01:56:01;;;;;;;13.00;6.47;;;15.40;82.60;;;;;;5892932;23;20024;-85
2021/06/30 01:59:04;;;;;;;8.43;6.30;;;15.40;82.60;;;;;;6008065;23;20023;-83
2021/06/30 02:01:58;;;;;;;10.63;6.18;;;15.40;82.60;;;;;;5989527;23;20495;-85
2021/06/30 02:04:56;;;;;;;10.48;6.30;;;15.40;82.50;;;;;;5997954;23;20416;-85
2021/06/30 02:39:16;;;;;;;;;;;;;;;;;;;;;
2021/06/30 02:59:36;;;;;;;9.18;5.05;;;15.00;82.20;;;;;;6338422;22;20019;-85
2021/06/30 03:02:32;;;;;;;9.70;5.07;;;15.10;82.10;;;;;;6309035;22;20034;-85
2021/06/30 03:09:22;;;;;;;9.10;5.55;;;15.10;82.20;;;;;;6205657;23;20020;-85
2021/06/30 03:12:45;;;;;;;;;;;;;;;;;;;;;
2021/06/30 03:15:56;;;;;;;11.13;6.40;;;15.10;82.20;;;;;;6212398;23;20429;-85
2021/06/30 03:50:15;;;;;;;16.02;7.82;;;15.10;82.30;;;;;;6066469;23;20058;-84
2021/06/30 04:33:33;;;;;;;;;;;;;;;;;;;;;
2021/06/30 04:41:13;;;;;;;15.38;7.40;;;14.90;82.70;;;;;;5817735;24;20119;-86
2021/06/30 04:47:12;;;;;;;12.60;6.88;;;14.90;82.80;;;;;;5843842;24;20582;-85
2021/06/30 04:50:00;;;;;;;11.90;7.70;;;14.90;82.80;;;;;;5821498;24;20018;-86
2021/06/30 04:52:49;;;;;;;12.80;7.32;;;14.90;82.80;;;;;;5822089;24;20395;-85
2021/06/30 04:59:58;;;;;;;15.35;8.07;;;14.90;82.90;;;;;;5790387;24;20057;-83
2021/06/30 05:03:19;;;;;;;13.68;7.45;;;15.00;83.00;;;;;;5794875;24;20496;-85
2021/06/30 05:10:58;;;;;;;14.48;8.00;;;15.00;83.00;;;;;;5887398;24;20541;-85
2021/06/30 05:14:03;;;;;;;;;;;;;;;;;;;;;
2021/06/30 05:41:29;;;;;;;23.17;9.65;;;15.00;83.30;;;;;;5952542;24;20028;-84
2021/06/30 05:44:43;;;;;;;;;;;;;;;;;;;;;
2021/06/30 06:09:19;;;;;;;;;;;;;;;;;;;;;
2021/06/30 06:12:30;;;;;;;17.42;10.50;;;15.10;83.50;;;;;;6186027;23;20485;-85
2021/06/30 06:15:35;;;;;;;17.42;10.50;;;15.10;83.50;;;;;;6109928;23;20041;-85
2021/06/30 06:44:18;;;;;;;20.48;10.80;;;15.00;83.50;;;;;;6191089;23;20028;-83
2021/06/30 06:50:06;;;;;;;;;;;;;;;;;;;;;
2021/06/30 06:53:00;;;;;;;18.65;10.82;;;15.10;83.60;;;;;;6226608;22;20019;-84
2021/06/30 06:55:35;;;;;;;23.25;11.45;;;15.10;83.70;;;;;;6255165;22;20023;-83
2021/06/30 06:58:10;;;;;;;19.15;11.57;;;15.20;83.70;;;;;;6256326;22;20019;-84
2021/06/30 07:00:41;;;;;;;23.60;12.38;;;15.20;83.70;;;;;;6155359;22;20027;-82
2021/06/30 07:03:29;;;;;;;20.42;12.23;;;15.20;83.80;;;;;;6280826;22;20019;-84
2021/06/30 07:06:26;;;;;;;21.00;13.45;;;15.20;83.80;;;;;;6137770;23;20017;-83
2021/06/30 07:09:21;;;;;;;20.60;12.98;;;15.20;83.70;;;;;;6159379;23;20025;-83
2021/06/30 07:12:09;;;;;;;17.73;12.32;;;15.20;83.70;;;;;;6038249;23;20026;-81
2021/06/30 07:14:56;;;;;;;20.38;11.52;;;15.20;83.70;;;;;;6098956;23;20014;-86
2021/06/30 07:17:27;;;;;;;22.30;13.20;;;15.30;83.70;;;;;;6100657;23;20029;-84
2021/06/30 07:20:06;;;;;;;24.67;11.88;;;15.30;83.70;;;;;;6100628;23;20085;-83
2021/06/30 07:22:48;;;;;;;20.63;11.98;;;15.30;83.70;;;;;;6100395;23;20050;-84
2021/06/30 07:25:18;;;;;;;21.02;11.48;;;15.30;83.70;;;;;;6166534;23;20107;-82
2021/06/30 07:28:08;;;;;;;20.55;11.52;;;15.30;83.60;;;;;;6219697;23;20435;-85
2021/06/30 07:30:40;;;;;;;18.33;11.57;;;15.30;83.70;;;;;;6141118;22;20465;-83
2021/06/30 07:33:10;;;;;;;20.45;11.80;;;15.20;83.70;;;;;;6311273;22;20073;-84
2021/06/30 07:35:40;;;;;;;17.25;10.63;;;15.30;83.70;;;;;;6234666;22;20054;-82
2021/06/30 07:38:08;;;;;;;15.57;10.82;;;15.30;83.70;;;;;;6228332;22;20065;-86
2021/06/30 07:40:41;;;;;;;18.30;10.07;;;15.30;83.70;;;;;;6304321;22;20077;-85
2021/06/30 07:43:54;;;;;;;15.00;10.50;;;15.30;83.80;;;;;;6345352;22;20014;-87
2021/06/30 07:46:36;;;;;;;17.08;10.55;;;15.30;83.80;;;;;;6248465;22;20064;-84
2021/06/30 07:49:08;;;;;;;19.08;10.50;;;15.30;83.80;;;;;;6369071;22;20014;-84
2021/06/30 07:52:33;;;;;;;15.35;9.75;;;15.30;83.80;;;;;;6369974;22;20082;-85
2021/06/30 07:55:46;;;;;;;12.90;9.18;;;15.30;83.70;;;;;;6368633;22;20472;-85
2021/06/30 07:58:21;;;;;;;12.63;9.07;;;15.30;83.70;;;;;;6368526;22;20011;-84
2021/06/30 08:00:54;;;;;;;9.82;7.75;;;15.30;83.70;;;;;;6368281;22;20461;-85
2021/06/30 08:08:21;;;;;;;;;;;;;;;;;;;;;
2021/06/30 08:11:18;;;;;;;8.82;5.68;;;15.30;83.70;;;;;;6060992;23;20026;-85
2021/06/30 08:14:12;;;;;;;8.20;5.30;;;15.30;83.80;;;;;;6064705;23;20019;-86
2021/06/30 08:17:23;;;;;;;6.07;4.05;;;15.30;83.80;;;;;;6064942;23;20379;-83
2021/06/30 08:20:33;;;;;;;7.60;4.30;;;15.40;84.00;;;;;;5979594;24;20028;-85
2021/06/30 08:23:05;;;;;;;7.05;5.05;;;15.40;84.00;;;;;;5979083;24;20059;-86
2021/06/30 08:25:45;;;;;;;6.40;4.22;;;15.40;84.10;;;;;;5957903;24;20020;-86
2021/06/30 08:28:17;;;;;;;5.80;4.57;;;15.50;84.10;;;;;;6122235;23;20081;-85
2021/06/30 08:30:53;;;;;;;5.88;4.13;;;15.50;84.10;;;;;;6122764;23;20094;-85
2021/06/30 08:33:28;;;;;;;9.50;4.28;;;15.60;84.20;;;;;;6098874;23;20473;-84
2021/06/30 08:36:38;;;;;;;7.47;5.03;;;15.60;84.20;;;;;;6122554;23;20061;-85
2021/06/30 08:39:17;;;;;;;7.28;5.18;;;15.60;84.20;;;;;;6096909;23;20092;-84
2021/06/30 08:42:43;;;;;;;11.95;6.18;;;15.70;84.30;;;;;;6099923;23;20076;-84
2021/06/30 08:45:22;;;;;;;9.98;6.38;;;15.80;84.30;;;;;;6246860;22;20023;-84
2021/06/30 08:48:06;;;;;;;10.13;6.95;;;15.80;84.30;;;;;;6247484;22;20011;-83
2021/06/30 08:50:52;;;;;;;8.00;6.80;;;15.90;84.20;;;;;;6293164;22;20045;-85
2021/06/30 08:58:13;;;;;;;10.60;6.97;;;15.90;84.10;;;;;;6092932;23;20513;-85
2021/06/30 09:01:27;;;;;;;16.23;7.10;;;15.90;83.90;;;;;;5987285;23;20032;-84
2021/06/30 09:04:42;;;;;;;;;;;;;;;;;;;;;
2021/06/30 09:07:53;;;;;;;;;;;;;;;;;;;;;
2021/06/30 09:11:16;;;;;;;11.25;7.35;;;16.00;83.50;;;;;;5924739;24;20024;-85
2021/06/30 09:15:17;;;;;;;10.15;7.07;;;16.00;83.60;;;;;;5870770;24;20504;-84
2021/06/30 09:17:45;;;;;;;11.73;7.60;;;16.00;83.40;;;;;;5880946;24;20020;-85
2021/06/30 09:20:21;;;;;;;9.68;7.07;;;16.10;83.50;;;;;;5925051;24;20032;-83
2021/06/30 09:23:13;;;;;;;10.15;7.07;;;16.10;83.60;;;;;;5948136;24;20055;-85
2021/06/30 09:25:49;;;;;;;13.27;7.93;;;16.20;83.60;;;;;;5958693;24;20443;-88
2021/06/30 09:32:06;;;;;;;9.48;6.70;;;16.30;83.60;;;;;;5897044;24;20084;-84
2021/06/30 09:37:53;;;;;;;12.20;7.57;;;16.40;83.50;;;;;;5924056;24;20520;-86
2021/06/30 09:40:49;;;;;;;11.40;7.47;;;16.40;83.40;;;;;;6001240;23;20071;-84
2021/06/30 09:43:49;;;;;;;17.08;7.80;;;16.40;83.30;;;;;;6031743;23;20576;-85
2021/06/30 09:46:36;;;;;;;15.60;8.07;;;16.40;83.30;;;;;;6070752;23;20015;-85
2021/06/30 09:52:36;;;;;;;11.60;7.40;;;16.40;83.20;;;;;;6060217;23;20030;-85
2021/06/30 09:55:24;;;;;;;15.05;9.88;;;16.40;83.10;;;;;;6070628;23;20061;-85
2021/06/30 09:57:52;;;;;;;14.73;7.63;;;16.50;83.10;;;;;;6094299;23;20077;-84
2021/06/30 10:00:19;;;;;;;12.90;8.07;;;16.50;83.00;;;;;;6070337;23;20421;-84
2021/06/30 10:02:52;;;;;;;13.95;7.88;;;16.50;82.90;;;;;;6070279;23;20030;-83
2021/06/30 10:05:54;;;;;;;16.67;7.65;;;16.50;82.90;;;;;;6093912;23;20082;-85
2021/06/30 10:08:22;;;;;;;12.18;6.60;;;16.40;82.80;;;;;;6151316;23;20022;-83
2021/06/30 10:11:17;;;;;;;11.75;6.47;;;16.50;82.80;;;;;;6217532;23;20475;-86
2021/06/30 10:14:16;;;;;;;9.02;5.50;;;16.50;83.20;;;;;;6152534;23;20024;-84
2021/06/30 10:16:47;;;;;;;10.93;5.53;;;16.50;83.30;;;;;;6128212;23;20459;-85
2021/06/30 10:20:01;;;;;;;13.07;6.05;;;16.50;83.40;;;;;;6128169;23;20022;-85
2021/06/30 10:22:29;;;;;;;12.27;6.00;;;16.60;83.60;;;;;;6128689;23;20022;-85
2021/06/30 10:25:14;;;;;;;10.40;5.50;;;16.60;83.60;;;;;;6128473;23;20085;-86
2021/06/30 10:44:37;;;;;;;;;;;;;;;;;;;;;
2021/06/30 10:48:02;;;;;;;6.95;3.88;;;16.70;82.60;;;;;;5928594;24;20442;-88
2021/06/30 10:50:38;;;;;;;6.97;3.10;;;16.70;82.40;;;;;;5951983;24;20013;-83
2021/06/30 10:53:35;;;;;;;5.35;2.95;;;16.60;82.30;;;;;;5952229;24;20095;-84
2021/06/30 10:56:25;;;;;;;5.13;2.70;;;16.60;82.50;;;;;;5951864;24;20024;-84
2021/06/30 10:59:01;;;;;;;5.72;2.60;;;16.60;82.60;;;;;;5979431;23;20492;-87
2021/06/30 11:02:16;;;;;;;5.38;2.70;;;16.60;82.60;;;;;;5956539;24;20057;-87
2021/06/30 11:05:03;;;;;;;6.10;2.42;;;16.60;82.60;;;;;;5979675;23;20018;-86
2021/06/30 11:08:41;;;;;;;;;;;;;;;;;;;;;
2021/06/30 11:12:29;;;;;;;5.35;2.50;;;16.60;82.60;;;;;;6212141;23;20020;-87
2021/06/30 11:31:56;;;;;;;;;;;;;;;;;;;;;
2021/06/30 11:37:35;;;;;;;5.18;2.42;;;16.70;82.70;;;;;;6008871;23;20019;-85
2021/06/30 11:40:15;;;;;;;4.22;2.10;;;16.70;82.60;;;;;;5986671;23;20378;-85
2021/06/30 11:42:47;;;;;;;4.80;2.15;;;16.70;82.60;;;;;;6011634;23;20035;-85
2021/06/30 11:46:06;;;;;;;;;;;;;;;;;;;;;
2021/06/30 11:49:14;;;;;;;8.25;1.45;;;16.70;82.30;;;;;;5898554;24;20113;-86
2021/06/30 11:51:40;;;;;;;3.13;1.25;;;16.70;82.20;;;;;;5921695;23;20046;-85
2021/06/30 11:54:54;;;;;;;;;;;;;;;;;;;;;
2021/06/30 12:40:10;;;;;;;;;;;;;;;;;;;;;
2021/06/30 12:44:17;;;;;;;;;;;;;;;;;;;;;
2021/06/30 12:48:19;;;;;;;;;;;;;;;;;;;;;
2021/06/30 12:52:16;;;;;;;7.25;2.13;;;16.50;82.60;;;;;;5953124;24;20015;-88
2021/06/30 13:14:25;;;;;;;2.95;1.40;;;16.90;83.30;;;;;;6416897;22;20025;-81
2021/06/30 13:17:13;;;;;;;3.53;1.50;;;16.90;83.00;;;;;;6409754;22;20034;-85
2021/06/30 13:20:32;;;;;;;3.83;1.92;;;16.90;82.90;;;;;;6406443;22;20028;-87
2021/06/30 13:37:06;;;;;;;7.15;2.40;;;16.90;81.90;;;;;;6273730;22;20490;-83
2021/06/30 13:40:14;;;;;;;3.92;2.30;;;16.90;81.90;;;;;;6104195;23;20432;-83
2021/06/30 13:42:59;;;;;;;4.78;1.98;;;16.90;81.90;;;;;;6123182;23;20513;-83
2021/06/30 13:46:20;;;;;;;6.60;2.30;;;16.90;81.70;;;;;;6101817;23;20089;-83
2021/06/30 13:48:59;;;;;;;5.10;1.88;;;16.90;81.60;;;;;;6098029;23;20021;-84
2021/06/30 13:51:32;;;;;;;6.05;2.22;;;16.90;81.60;;;;;;6123412;23;20026;-82
2021/06/30 13:54:00;;;;;;;3.80;2.13;;;16.90;81.60;;;;;;6108717;23;20045;-84
2021/06/30 13:56:40;;;;;;;8.30;1.80;;;16.90;81.70;;;;;;6157673;23;20040;-84
2021/06/30 13:59:08;;;;;;;9.57;2.15;;;17.00;81.60;;;;;;6182826;23;20543;-82
2021/06/30 14:01:37;;;;;;;8.25;2.08;;;16.90;81.40;;;;;;6182561;23;20044;-82
2021/06/30 14:04:05;;;;;;;9.20;2.10;;;17.00;81.40;;;;;;6182377;23;20096;-83
2021/06/30 14:06:32;;;;;;;4.35;1.98;;;17.00;81.50;;;;;;6182489;23;20365;-84
2021/06/30 14:09:00;;;;;;;3.80;1.80;;;17.10;81.60;;;;;;6182544;23;20068;-84
2021/06/30 14:11:28;;;;;;;3.38;2.00;;;17.10;81.50;;;;;;6250545;22;20418;-84
2021/06/30 14:13:59;;;;;;;5.00;2.10;;;17.10;81.50;;;;;;6273358;22;20054;-82
2021/06/30 14:16:40;;;;;;;4.85;1.90;;;17.20;81.50;;;;;;6363631;22;20478;-83
2021/06/30 14:19:07;;;;;;;4.90;2.22;;;17.20;81.40;;;;;;6433750;22;20022;-82
2021/06/30 14:21:35;;;;;;;6.45;2.50;;;17.20;81.30;;;;;;6406079;22;20097;-81
2021/06/30 14:24:02;;;;;;;5.18;2.80;;;17.20;81.20;;;;;;6405922;22;20081;-83
2021/06/30 14:26:29;;;;;;;7.35;2.55;;;17.20;81.20;;;;;;6405275;22;20016;-84
2021/06/30 14:28:59;;;;;;;5.03;2.75;;;17.30;81.10;;;;;;6405457;22;20084;-83
2021/06/30 14:31:28;;;;;;;5.93;2.50;;;17.30;81.10;;;;;;6433806;22;20014;-82
2021/06/30 14:33:56;;;;;;;7.47;2.65;;;17.30;81.00;;;;;;6405601;22;20389;-81
2021/06/30 14:36:23;;;;;;;5.57;2.60;;;17.30;80.90;;;;;;6405769;22;20062;-85
2021/06/30 14:38:50;;;;;;;5.53;2.50;;;17.30;80.90;;;;;;6433620;22;20013;-83
2021/06/30 14:41:17;;;;;;;4.85;2.53;;;17.30;80.80;;;;;;6405206;22;20021;-85
2021/06/30 14:43:44;;;;;;;5.85;2.50;;;17.30;80.60;;;;;;6405707;22;20020;-83
2021/06/30 14:46:11;;;;;;;4.68;2.33;;;17.40;80.50;;;;;;6405682;22;20018;-81
2021/06/30 14:48:40;;;;;;;10.13;2.55;;;17.40;80.40;;;;;;6435915;22;20089;-82
2021/06/30 14:51:07;;;;;;;6.32;2.20;;;17.30;80.30;;;;;;6407780;22;20045;-82
2021/06/30 14:53:35;;;;;;;5.03;2.30;;;17.40;80.30;;;;;;6408138;22;20014;-84
2021/06/30 14:56:04;;;;;;;7.00;2.50;;;17.30;80.10;;;;;;6407369;22;20019;-83
2021/06/30 14:58:32;;;;;;;4.32;2.20;;;17.30;80.10;;;;;;6435886;22;20022;-83
2021/06/30 15:00:59;;;;;;;8.15;2.10;;;17.20;79.90;;;;;;6407696;22;20013;-82
2021/06/30 15:03:26;;;;;;;4.30;2.22;;;17.20;80.00;;;;;;6407892;22;20078;-83
2021/06/30 15:05:54;;;;;;;6.30;2.50;;;17.20;79.90;;;;;;6435968;22;20096;-82
2021/06/30 15:08:21;;;;;;;6.22;2.25;;;17.20;79.90;;;;;;6435170;22;20037;-84
2021/06/30 15:10:48;;;;;;;7.43;2.35;;;17.20;80.00;;;;;;6407515;22;20045;-83
2021/06/30 15:13:15;;;;;;;6.43;2.58;;;17.10;79.90;;;;;;6390346;22;20014;-82
2021/06/30 15:15:42;;;;;;;4.90;2.20;;;17.10;79.80;;;;;;6371578;22;20097;-82
2021/06/30 15:18:11;;;;;;;5.72;3.05;;;17.10;79.70;;;;;;6371638;22;20097;-82
2021/06/30 15:20:39;;;;;;;7.45;2.47;;;17.10;79.70;;;;;;6370322;22;20089;-83
2021/06/30 15:23:06;;;;;;;5.35;2.22;;;17.00;79.50;;;;;;6369780;22;20022;-83
2021/06/30 15:25:33;;;;;;;4.85;2.25;;;17.00;79.50;;;;;;6370295;22;20025;-83
2021/06/30 15:28:00;;;;;;;4.38;1.90;;;16.90;79.50;;;;;;6369979;22;20339;-80
2021/06/30 15:30:27;;;;;;;4.05;1.80;;;16.90;79.60;;;;;;6370484;22;20020;-82
2021/06/30 15:32:54;;;;;;;9.73;1.95;;;16.90;79.60;;;;;;6370065;22;20015;-84
2021/06/30 15:35:22;;;;;;;8.10;2.00;;;16.90;79.70;;;;;;6370039;22;20018;-81
2021/06/30 15:37:52;;;;;;;5.03;1.60;;;16.80;79.80;;;;;;6369778;22;20466;-82
2021/06/30 15:40:20;;;;;;;3.47;1.70;;;16.90;79.90;;;;;;6369668;22;20449;-81
2021/06/30 15:42:47;;;;;;;4.05;1.58;;;16.80;79.90;;;;;;6369917;22;20020;-82
2021/06/30 15:45:17;;;;;;;2.47;1.35;;;16.80;79.90;;;;;;6369876;22;20018;-81
2021/06/30 15:47:45;;;;;;;4.20;1.52;;;16.80;80.00;;;;;;6369719;22;20021;-82
2021/06/30 15:50:13;;;;;;;4.05;1.73;;;16.70;79.80;;;;;;6371197;22;20365;-81
2021/06/30 15:52:41;;;;;;;3.28;1.45;;;16.70;79.70;;;;;;6369428;22;20018;-82
2021/06/30 15:55:13;;;;;;;5.20;1.60;;;16.70;79.80;;;;;;6369570;22;20353;-82
2021/06/30 15:57:42;;;;;;;4.68;1.48;;;16.60;79.90;;;;;;6370756;22;20015;-80
2021/06/30 16:00:12;;;;;;;3.88;1.80;;;16.60;79.90;;;;;;6371258;22;20014;-83
2021/06/30 16:02:39;;;;;;;3.30;1.60;;;16.50;80.00;;;;;;6370000;22;20097;-83
2021/06/30 16:05:08;;;;;;;3.35;1.60;;;16.50;80.10;;;;;;6369425;22;20015;-83
2021/06/30 16:07:35;;;;;;;3.20;1.48;;;16.50;80.30;;;;;;6369209;22;20025;-82
2021/06/30 16:10:10;;;;;;;5.70;1.60;;;16.50;80.30;;;;;;6369639;22;20010;-82
2021/06/30 16:12:38;;;;;;;4.40;1.90;;;16.50;80.40;;;;;;6375950;22;20014;-82
2021/06/30 16:15:08;;;;;;;4.97;1.80;;;16.50;80.50;;;;;;6435349;22;20381;-84
2021/06/30 16:17:41;;;;;;;7.57;1.85;;;16.40;80.50;;;;;;6406609;22;20017;-82
2021/06/30 16:20:13;;;;;;;5.30;1.50;;;16.40;80.60;;;;;;6434995;22;20014;-83
2021/06/30 16:22:43;;;;;;;2.85;1.63;;;16.40;80.60;;;;;;6406610;22;20352;-83
2021/06/30 16:25:29;;;;;;;4.63;1.75;;;16.40;80.60;;;;;;6435132;22;20025;-82
2021/06/30 16:27:56;;;;;;;5.35;1.70;;;16.40;80.70;;;;;;6435100;22;20024;-82
2021/06/30 16:30:26;;;;;;;4.10;1.40;;;16.40;80.80;;;;;;6406686;22;20013;-84
2021/06/30 16:32:53;;;;;;;4.15;2.05;;;16.40;80.90;;;;;;6406658;22;20453;-82
2021/06/30 16:35:20;;;;;;;4.28;1.77;;;16.40;81.00;;;;;;6434544;22;20020;-83
2021/06/30 16:37:47;;;;;;;3.65;1.85;;;16.40;81.00;;;;;;6434895;22;20028;-83
2021/06/30 17:12:23;;;;;;;5.55;1.80;;;16.10;81.20;;;;;;6213144;23;20016;-84
2021/06/30 17:14:55;;;;;;;4.60;1.60;;;16.10;81.30;;;;;;6188502;23;20479;-83
2021/06/30 17:17:29;;;;;;;4.15;1.70;;;16.10;81.30;;;;;;6188297;23;20020;-83
2021/06/30 17:19:59;;;;;;;4.10;1.70;;;16.00;81.30;;;;;;6188705;23;20023;-83
2021/06/30 17:22:27;;;;;;;4.47;2.22;;;16.00;81.40;;;;;;6188906;23;20091;-82
2021/06/30 17:25:12;;;;;;;5.45;2.00;;;16.10;81.40;;;;;;6189725;23;20035;-82
2021/06/30 17:27:41;;;;;;;6.22;2.00;;;16.00;81.40;;;;;;6187908;23;20044;-82
2021/06/30 17:30:13;;;;;;;4.90;2.08;;;16.00;81.50;;;;;;6212963;23;20032;-83
2021/06/30 17:32:44;;;;;;;7.53;2.35;;;16.10;81.40;;;;;;6188342;23;20017;-82
2021/06/30 17:35:13;;;;;;;5.25;2.28;;;16.10;81.40;;;;;;6188066;23;20038;-82
2021/06/30 17:37:41;;;;;;;8.23;2.33;;;16.10;81.40;;;;;;6188027;23;20075;-83
2021/06/30 17:40:10;;;;;;;4.32;2.25;;;16.10;81.30;;;;;;6187937;23;20095;-82
2021/06/30 17:42:37;;;;;;;8.05;2.50;;;16.20;81.40;;;;;;6187986;23;20024;-82
2021/06/30 17:45:06;;;;;;;6.90;2.33;;;16.10;81.40;;;;;;6212827;23;20024;-84
2021/06/30 17:47:33;;;;;;;5.32;2.13;;;16.10;81.40;;;;;;6265332;22;20015;-83
2021/06/30 17:50:01;;;;;;;6.88;2.72;;;16.20;81.40;;;;;;6310802;22;20084;-82
2021/06/30 17:52:31;;;;;;;3.75;2.00;;;16.20;81.40;;;;;;6311619;22;20056;-81
2021/06/30 17:54:59;;;;;;;7.07;2.50;;;16.20;81.50;;;;;;6311404;22;20094;-84
2021/06/30 17:57:26;;;;;;;5.97;2.55;;;16.20;81.50;;;;;;6311510;22;20462;-83
2021/06/30 17:59:53;;;;;;;6.13;2.22;;;16.30;81.50;;;;;;6338710;22;20047;-82
2021/06/30 18:02:21;;;;;;;7.00;2.58;;;16.30;81.50;;;;;;6310785;22;20017;-81
2021/06/30 18:04:49;;;;;;;4.88;2.38;;;16.30;81.30;;;;;;6311400;22;20021;-83
2021/06/30 18:07:17;;;;;;;5.70;2.63;;;16.30;81.20;;;;;;6309077;22;20474;-83
2021/06/30 18:09:51;;;;;;;4.95;2.55;;;16.30;81.10;;;;;;6309152;22;20021;-83
2021/06/30 18:12:19;;;;;;;8.43;2.40;;;16.30;81.00;;;;;;6310139;22;20021;-83
2021/06/30 18:14:46;;;;;;;7.53;2.33;;;16.30;80.90;;;;;;6309847;22;20015;-81
2021/06/30 18:17:13;;;;;;;5.63;2.47;;;16.30;80.90;;;;;;6309166;22;20026;-82
2021/06/30 18:19:40;;;;;;;8.88;2.55;;;16.30;80.90;;;;;;6309975;22;20023;-82
2021/06/30 18:22:08;;;;;;;7.05;2.10;;;16.30;80.70;;;;;;6337219;22;20019;-79
2021/06/30 18:24:35;;;;;;;8.60;2.30;;;16.30;80.80;;;;;;6310006;22;20014;-81
2021/06/30 18:27:02;;;;;;;6.95;2.78;;;16.30;80.80;;;;;;6336639;22;20018;-81
2021/06/30 18:29:31;;;;;;;5.85;2.50;;;16.30;80.70;;;;;;6309806;22;20030;-81
2021/06/30 18:31:58;;;;;;;12.95;2.50;;;16.20;80.70;;;;;;6309763;22;20026;-81
2021/06/30 18:34:26;;;;;;;6.57;2.60;;;16.20;80.60;;;;;;6337288;22;20377;-81
2021/06/30 18:36:53;;;;;;;5.43;2.88;;;16.20;80.50;;;;;;6310101;22;20046;-82
2021/06/30 18:39:20;;;;;;;8.80;2.70;;;16.20;80.50;;;;;;6309650;22;20021;-82
2021/06/30 18:41:47;;;;;;;5.55;2.08;;;16.20;80.40;;;;;;6310098;22;20015;-81
2021/06/30 18:44:22;;;;;;;4.13;2.42;;;16.20;80.40;;;;;;6336966;22;20020;-81
2021/06/30 18:47:02;;;;;;;6.03;2.58;;;16.20;80.40;;;;;;6336469;22;20069;-81
2021/06/30 18:49:30;;;;;;;9.90;2.88;;;16.20;80.40;;;;;;6309899;22;20076;-82
2021/06/30 18:51:58;;;;;;;5.95;2.88;;;16.10;80.30;;;;;;6337489;22;20050;-81
2021/06/30 18:54:25;;;;;;;6.95;2.80;;;16.10;80.20;;;;;;6309370;22;20490;-81
2021/06/30 18:56:53;;;;;;;8.02;2.35;;;16.00;80.20;;;;;;6309961;22;20019;-81
2021/06/30 18:59:24;;;;;;;8.90;3.08;;;16.00;80.30;;;;;;6337134;22;20057;-81
2021/06/30 19:01:53;;;;;;;5.63;2.95;;;16.00;80.30;;;;;;6309060;22;20119;-83
2021/06/30 19:04:21;;;;;;;7.45;2.80;;;16.00;80.30;;;;;;6337180;22;20105;-81
2021/06/30 19:06:49;;;;;;;6.60;2.92;;;15.90;80.20;;;;;;6310190;22;20018;-83
2021/06/30 19:09:16;;;;;;;7.55;3.03;;;15.90;80.20;;;;;;6309120;22;20021;-82
2021/06/30 19:11:44;;;;;;;9.60;3.70;;;15.90;80.20;;;;;;6309380;22;20011;-81
2021/06/30 19:14:11;;;;;;;7.18;3.03;;;15.90;80.20;;;;;;6309419;22;20469;-81
2021/06/30 19:16:38;;;;;;;5.35;2.97;;;15.90;80.30;;;;;;6309490;22;20015;-82
2021/06/30 19:19:05;;;;;;;8.93;3.53;;;15.90;80.40;;;;;;6309433;22;20027;-81
2021/06/30 19:21:36;;;;;;;6.90;3.30;;;15.90;80.30;;;;;;6310050;22;20019;-79
2021/06/30 19:24:04;;;;;;;9.82;3.45;;;15.80;80.40;;;;;;6309314;22;20023;-82
2021/06/30 19:26:33;;;;;;;5.90;2.88;;;15.80;80.40;;;;;;6310262;22;20019;-81
2021/06/30 19:29:01;;;;;;;11.07;3.70;;;15.80;80.40;;;;;;6336533;22;20022;-83
2021/06/30 19:31:28;;;;;;;14.38;3.55;;;15.70;80.40;;;;;;6308869;22;20025;-81
2021/06/30 19:33:56;;;;;;;6.55;3.45;;;15.70;80.30;;;;;;6310623;22;20015;-83
2021/06/30 19:36:26;;;;;;;6.32;3.20;;;15.70;80.40;;;;;;6311330;22;20503;-82
2021/06/30 19:38:53;;;;;;;7.50;4.32;;;15.70;80.50;;;;;;6311409;22;20019;-82
2021/06/30 19:41:23;;;;;;;13.55;4.15;;;15.60;80.40;;;;;;6311233;22;20097;-82
2021/06/30 19:43:51;;;;;;;8.40;3.78;;;15.60;80.40;;;;;;6311460;22;20466;-81
2021/06/30 19:46:18;;;;;;;6.47;3.58;;;15.60;80.40;;;;;;6338069;22;20148;-81
2021/06/30 19:48:45;;;;;;;12.07;3.80;;;15.60;80.40;;;;;;6311740;22;20019;-80
2021/06/30 19:53:39;;;;;;;10.38;4.30;;;15.60;80.60;;;;;;6338245;22;20026;-81
2021/06/30 19:56:08;;;;;;;11.68;5.22;;;15.60;80.70;;;;;;6338644;22;20094;-83
2021/06/30 19:58:36;;;;;;;6.47;3.45;;;15.60;80.80;;;;;;6338208;22;20018;-82
2021/06/30 20:01:03;;;;;;;6.32;3.90;;;15.60;80.80;;;;;;6337600;22;20098;-81
2021/06/30 20:03:31;;;;;;;7.45;4.88;;;15.60;80.80;;;;;;6311117;22;20025;-82
2021/06/30 20:05:58;;;;;;;10.32;3.92;;;15.60;80.80;;;;;;6311659;22;20034;-83
2021/06/30 20:08:25;;;;;;;12.98;4.80;;;15.50;80.80;;;;;;6310244;22;20021;-83
2021/06/30 20:10:53;;;;;;;7.80;4.00;;;15.60;80.80;;;;;;6311247;22;20415;-84
2021/06/30 20:13:21;;;;;;;6.78;3.60;;;15.60;80.80;;;;;;6310636;22;20497;-82
2021/06/30 20:15:56;;;;;;;10.52;3.75;;;15.60;80.80;;;;;;6312767;22;20063;-82
2021/06/30 20:18:24;;;;;;;5.47;3.42;;;15.50;80.80;;;;;;6311336;22;20034;-83
2021/06/30 20:21:09;;;;;;;;;;;;;;;;;;;;;
2021/06/30 20:23:36;;;;;;;5.95;3.40;;;15.50;80.80;;;;;;6338121;22;20060;-83
2021/06/30 20:26:08;;;;;;;6.70;3.30;;;15.50;80.80;;;;;;6312021;22;20017;-82
2021/06/30 20:28:35;;;;;;;7.85;3.13;;;15.50;80.90;;;;;;6337713;22;20019;-81
2021/06/30 20:31:02;;;;;;;10.82;3.92;;;15.50;80.80;;;;;;6310713;22;20025;-83
2021/06/30 20:33:29;;;;;;;7.70;3.42;;;15.50;80.90;;;;;;6338392;22;20025;-82
2021/06/30 20:35:57;;;;;;;7.93;3.20;;;15.50;80.90;;;;;;6311464;22;20021;-83
2021/06/30 20:38:24;;;;;;;8.73;2.88;;;15.50;80.90;;;;;;6310722;22;20478;-82
2021/06/30 20:40:51;;;;;;;8.57;3.17;;;15.40;81.00;;;;;;6310997;22;20015;-81
2021/06/30 20:43:19;;;;;;;11.43;3.38;;;15.40;81.00;;;;;;6338024;22;20374;-82
2021/06/30 20:45:46;;;;;;;8.70;3.15;;;15.40;81.00;;;;;;6337382;22;20050;-82
2021/06/30 20:48:15;;;;;;;9.45;2.90;;;15.40;81.00;;;;;;6310999;22;20089;-83
2021/06/30 20:50:47;;;;;;;7.55;3.08;;;15.40;81.00;;;;;;6311755;22;20037;-82
2021/06/30 20:53:17;;;;;;;7.47;3.20;;;15.40;81.00;;;;;;6337558;22;20080;-82
2021/06/30 20:55:47;;;;;;;7.10;3.35;;;15.40;81.10;;;;;;6337696;22;20369;-81
2021/06/30 20:58:16;;;;;;;11.40;3.78;;;15.40;81.10;;;;;;6337971;22;20072;-83
2021/06/30 21:01:24;;;;;;;10.18;3.03;;;15.40;81.20;;;;;;6310053;22;20054;-81
2021/06/30 21:04:09;;;;;;;4.57;2.80;;;15.40;81.20;;;;;;6338082;22;20015;-81
2021/06/30 21:07:13;;;;;;;5.75;2.95;;;15.30;81.20;;;;;;6211644;23;20063;-81
2021/06/30 21:09:54;;;;;;;16.52;3.20;;;15.40;81.20;;;;;;6211870;23;20020;-83
2021/06/30 21:12:26;;;;;;;9.07;3.00;;;15.30;81.30;;;;;;6211483;23;20036;-82
2021/06/30 21:15:16;;;;;;;7.57;3.25;;;15.30;81.30;;;;;;6211599;23;20058;-82
2021/06/30 21:21:27;;;;;;;7.18;3.30;;;15.30;81.30;;;;;;6092862;23;20073;-82
2021/06/30 21:24:48;;;;;;;7.30;3.50;;;15.30;81.30;;;;;;6050616;23;20019;-83
2021/06/30 21:27:37;;;;;;;7.80;3.95;;;15.30;81.40;;;;;;6092704;23;20464;-81
2021/06/30 21:30:15;;;;;;;10.52;3.53;;;15.30;81.40;;;;;;6092180;23;20022;-82
2021/06/30 21:32:47;;;;;;;8.50;3.65;;;15.20;81.40;;;;;;6093180;23;20022;-82